createdAt,value
2018-11-01T00:01:10.450Z,8.20
2018-11-01T00:03:14.678Z,8.20
2018-11-01T00:05:19.041Z,8.20
2018-11-01T00:07:23.283Z,8.20
2018-11-01T00:09:27.516Z,8.20
2018-11-01T00:11:31.758Z,8.20
2018-11-01T00:13:35.956Z,8.20
2018-11-01T00:15:40.164Z,8.20
2018-11-01T00:17:44.446Z,8.30
2018-11-01T00:19:48.693Z,8.20
2018-11-01T00:21:52.897Z,8.20
2018-11-01T00:23:57.166Z,8.20
2018-11-01T00:26:01.430Z,8.20
2018-11-01T00:28:05.729Z,8.10
2018-11-01T00:30:10.493Z,8.10
2018-11-01T00:32:14.711Z,8.10
2018-11-01T00:34:18.856Z,8.10
2018-11-01T00:36:23.098Z,8.10
2018-11-01T00:38:27.243Z,8.10
2018-11-01T00:40:31.504Z,8.10
2018-11-01T00:42:35.710Z,8.00
2018-11-01T00:44:39.999Z,8.10
2018-11-01T00:46:44.151Z,8.00
2018-11-01T00:48:48.420Z,8.00
2018-11-01T00:50:52.701Z,8.00
2018-11-01T00:52:56.906Z,8.10
2018-11-01T00:55:01.150Z,8.10
2018-11-01T00:57:05.750Z,8.10
2018-11-01T00:59:10.031Z,8.10
2018-11-01T01:01:14.246Z,8.20
2018-11-01T01:03:18.514Z,8.20
2018-11-01T01:05:22.740Z,8.20
2018-11-01T01:07:26.938Z,8.20
2018-11-01T01:09:31.126Z,8.30
2018-11-01T01:11:35.358Z,8.30
2018-11-01T01:13:39.571Z,8.20
2018-11-01T01:15:43.705Z,8.20
2018-11-01T01:17:47.927Z,8.20
2018-11-01T01:19:52.046Z,8.10
2018-11-01T01:21:56.252Z,8.20
2018-11-01T01:24:00.456Z,8.10
2018-11-01T01:26:04.730Z,8.10
2018-11-01T01:28:08.934Z,8.10
2018-11-01T01:30:16.423Z,8.10
2018-11-01T01:32:20.615Z,8.00
2018-11-01T01:34:24.865Z,8.00
2018-11-01T01:36:29.016Z,7.90
2018-11-01T01:38:33.264Z,7.90
2018-11-01T01:40:37.499Z,7.90
2018-11-01T01:42:46.999Z,7.70
2018-11-01T01:44:51.255Z,7.70
2018-11-01T01:46:55.475Z,7.60
2018-11-01T01:48:59.629Z,7.50
2018-11-01T01:51:03.844Z,7.50
2018-11-01T01:53:08.099Z,7.40
2018-11-01T01:55:12.370Z,7.40
2018-11-01T01:57:16.582Z,7.40
2018-11-01T01:59:20.864Z,7.40
2018-11-01T02:01:25.144Z,7.40
2018-11-01T02:03:29.334Z,7.40
2018-11-01T02:05:33.547Z,7.40
2018-11-01T02:07:37.743Z,7.30
2018-11-01T02:09:41.915Z,7.30
2018-11-01T02:11:46.218Z,7.30
2018-11-01T02:13:50.561Z,7.30
2018-11-01T02:15:54.840Z,7.30
2018-11-01T02:17:59.004Z,7.20
2018-11-01T02:20:03.224Z,7.20
2018-11-01T02:22:07.483Z,7.30
2018-11-01T02:24:11.955Z,7.20
2018-11-01T02:26:16.174Z,7.20
2018-11-01T02:28:20.386Z,7.20
2018-11-01T02:30:24.630Z,7.20
2018-11-01T02:32:28.858Z,7.30
2018-11-01T02:34:33.086Z,7.30
2018-11-01T02:36:37.314Z,7.30
2018-11-01T02:38:41.588Z,7.30
2018-11-01T02:40:45.734Z,7.40
2018-11-01T02:42:49.945Z,7.40
2018-11-01T02:44:54.160Z,7.40
2018-11-01T02:47:14.319Z,7.50
2018-11-01T02:49:31.789Z,7.50
2018-11-01T02:51:36.456Z,7.50
2018-11-01T02:53:40.621Z,7.50
2018-11-01T02:55:44.773Z,7.50
2018-11-01T02:57:49.025Z,7.60
2018-11-01T02:59:53.333Z,7.60
2018-11-01T03:01:57.481Z,7.60
2018-11-01T03:04:01.578Z,7.60
2018-11-01T03:06:06.149Z,7.70
2018-11-01T03:08:10.412Z,7.70
2018-11-01T03:10:15.365Z,7.70
2018-11-01T03:12:19.620Z,7.70
2018-11-01T03:14:23.824Z,7.70
2018-11-01T03:16:28.107Z,7.80
2018-11-01T03:18:32.313Z,7.80
2018-11-01T03:20:36.556Z,7.80
2018-11-01T03:22:40.775Z,7.90
2018-11-01T03:24:44.952Z,7.90
2018-11-01T03:26:49.183Z,7.90
2018-11-01T03:28:53.367Z,8.00
2018-11-01T03:30:57.642Z,7.90
2018-11-01T03:33:01.845Z,7.90
2018-11-01T03:35:06.496Z,7.90
2018-11-01T03:37:12.221Z,7.80
2018-11-01T03:39:16.591Z,7.80
2018-11-01T03:41:20.783Z,7.80
2018-11-01T03:43:25.677Z,7.80
2018-11-01T03:45:30.467Z,7.70
2018-11-01T03:47:34.917Z,7.70
2018-11-01T03:49:39.443Z,7.70
2018-11-01T03:51:44.591Z,7.70
2018-11-01T03:53:49.386Z,7.60
2018-11-01T03:55:53.536Z,7.60
2018-11-01T03:57:58.081Z,7.60
2018-11-01T04:00:02.520Z,7.60
2018-11-01T04:02:07.890Z,7.70
2018-11-01T04:04:12.095Z,7.70
2018-11-01T04:06:16.840Z,7.80
2018-11-01T04:08:21.553Z,7.80
2018-11-01T04:10:26.527Z,7.70
2018-11-01T04:12:30.861Z,7.80
2018-11-01T04:14:35.121Z,7.80
2018-11-01T04:16:39.455Z,7.80
2018-11-01T04:18:43.872Z,7.80
2018-11-01T04:20:48.132Z,7.80
2018-11-01T04:22:52.373Z,7.90
2018-11-01T04:24:56.621Z,7.90
2018-11-01T04:27:00.979Z,7.90
2018-11-01T04:29:05.423Z,7.90
2018-11-01T04:31:09.630Z,7.90
2018-11-01T04:33:13.880Z,7.90
2018-11-01T04:35:18.167Z,7.90
2018-11-01T04:37:22.508Z,7.90
2018-11-01T04:39:26.750Z,7.90
2018-11-01T04:41:30.997Z,7.90
2018-11-01T04:43:35.210Z,7.80
2018-11-01T04:45:39.302Z,7.90
2018-11-01T04:47:43.661Z,7.80
2018-11-01T04:49:47.735Z,7.70
2018-11-01T04:51:51.924Z,7.70
2018-11-01T04:53:56.169Z,7.70
2018-11-01T04:56:00.401Z,7.70
2018-11-01T04:58:04.669Z,7.60
2018-11-01T05:00:11.255Z,7.70
2018-11-01T05:02:15.488Z,7.60
2018-11-01T05:04:19.746Z,7.50
2018-11-01T05:06:23.975Z,7.50
2018-11-01T05:08:28.380Z,7.50
2018-11-01T05:10:32.653Z,7.40
2018-11-01T05:12:37.055Z,7.40
2018-11-01T05:14:41.217Z,7.30
2018-11-01T05:16:45.460Z,7.40
2018-11-01T05:18:49.759Z,7.30
2018-11-01T05:20:53.971Z,7.40
2018-11-01T05:22:58.157Z,7.40
2018-11-01T05:25:02.394Z,7.30
2018-11-01T05:27:06.737Z,7.30
2018-11-01T05:29:10.955Z,7.30
2018-11-01T05:31:15.193Z,7.30
2018-11-01T05:33:19.450Z,7.20
2018-11-01T05:35:23.710Z,7.20
2018-11-01T05:37:28.039Z,7.10
2018-11-01T05:39:32.226Z,7.10
2018-11-01T05:41:36.405Z,7.10
2018-11-01T05:43:40.644Z,7.10
2018-11-01T05:45:44.840Z,7.10
2018-11-01T05:47:49.097Z,7.10
2018-11-01T05:49:53.601Z,7.10
2018-11-01T05:51:57.823Z,7.10
2018-11-01T05:54:02.070Z,7.00
2018-11-01T05:56:06.441Z,7.00
2018-11-01T05:58:10.629Z,7.10
2018-11-01T06:00:14.916Z,7.00
2018-11-01T06:02:29.733Z,7.00
2018-11-01T06:04:34.018Z,7.00
2018-11-01T06:06:38.227Z,7.00
2018-11-01T06:08:43.491Z,7.00
2018-11-01T06:10:47.671Z,6.90
2018-11-01T06:12:51.895Z,6.90
2018-11-01T06:14:56.646Z,6.90
2018-11-01T06:17:00.904Z,6.90
2018-11-01T06:19:05.493Z,6.90
2018-11-01T06:21:10.267Z,6.90
2018-11-01T06:23:14.923Z,6.90
2018-11-01T06:25:19.782Z,6.90
2018-11-01T06:27:24.018Z,6.90
2018-11-01T06:29:28.238Z,6.90
2018-11-01T06:31:32.417Z,6.90
2018-11-01T06:33:36.610Z,6.90
2018-11-01T06:35:43.367Z,6.90
2018-11-01T06:37:47.600Z,6.80
2018-11-01T06:39:52.061Z,6.90
2018-11-01T06:41:56.200Z,6.80
2018-11-01T06:44:00.394Z,6.80
2018-11-01T06:46:04.559Z,6.80
2018-11-01T06:48:08.736Z,6.80
2018-11-01T06:50:12.981Z,6.80
2018-11-01T06:52:17.190Z,6.80
2018-11-01T06:54:21.398Z,6.80
2018-11-01T06:56:25.639Z,6.80
2018-11-01T06:58:30.005Z,6.80
2018-11-01T07:00:34.022Z,6.80
2018-11-01T07:02:38.254Z,6.80
2018-11-01T07:04:42.492Z,6.80
2018-11-01T07:06:46.735Z,6.80
2018-11-01T07:08:50.980Z,6.90
2018-11-01T07:10:55.162Z,7.00
2018-11-01T07:12:59.447Z,7.10
2018-11-01T07:15:03.679Z,7.20
2018-11-01T07:17:07.964Z,7.30
2018-11-01T07:19:12.307Z,7.30
2018-11-01T07:21:16.495Z,7.40
2018-11-01T07:23:20.774Z,7.40
2018-11-01T07:25:25.124Z,7.40
2018-11-01T07:27:29.691Z,7.40
2018-11-01T07:29:33.911Z,7.40
2018-11-01T07:31:38.084Z,7.40
2018-11-01T07:33:42.336Z,7.50
2018-11-01T07:35:46.548Z,7.50
2018-11-01T07:37:50.824Z,7.50
2018-11-01T07:39:55.019Z,7.60
2018-11-01T07:41:59.210Z,7.70
2018-11-01T07:44:03.613Z,7.70
2018-11-01T07:46:07.842Z,7.70
2018-11-01T07:48:12.053Z,7.70
2018-11-01T07:50:16.340Z,7.70
2018-11-01T07:52:20.532Z,7.70
2018-11-01T07:54:24.986Z,7.70
2018-11-01T07:56:29.214Z,7.80
2018-11-01T07:58:33.435Z,7.80
2018-11-01T08:00:37.666Z,7.90
2018-11-01T08:02:42.497Z,7.90
2018-11-01T08:04:46.646Z,7.90
2018-11-01T08:06:50.879Z,7.90
2018-11-01T08:08:55.070Z,7.90
2018-11-01T08:10:59.244Z,8.00
2018-11-01T08:13:03.459Z,8.10
2018-11-01T08:15:10.264Z,8.10
2018-11-01T08:17:14.557Z,8.10
2018-11-01T08:19:18.764Z,8.20
2018-11-01T08:21:23.104Z,8.20
2018-11-01T08:23:27.278Z,8.20
2018-11-01T08:25:31.449Z,8.20
2018-11-01T08:27:35.635Z,8.20
2018-11-01T08:29:39.846Z,8.30
2018-11-01T08:31:44.023Z,8.30
2018-11-01T08:33:48.222Z,8.40
2018-11-01T08:35:52.429Z,8.40
2018-11-01T08:37:56.654Z,8.40
2018-11-01T08:40:00.855Z,8.40
2018-11-01T08:42:05.107Z,8.40
2018-11-01T08:44:09.361Z,8.50
2018-11-01T08:46:13.576Z,8.50
2018-11-01T08:48:18.028Z,8.60
2018-11-01T08:50:22.308Z,8.60
2018-11-01T08:52:26.828Z,8.60
2018-11-01T08:54:32.234Z,8.60
2018-11-01T08:56:37.810Z,8.70
2018-11-01T08:58:42.026Z,8.70
2018-11-01T09:00:46.204Z,8.80
2018-11-01T09:02:50.386Z,8.90
2018-11-01T09:04:54.625Z,8.90
2018-11-01T09:06:58.835Z,9.00
2018-11-01T09:09:03.203Z,9.00
2018-11-01T09:11:07.469Z,9.20
2018-11-01T09:13:11.755Z,9.40
2018-11-01T09:15:17.031Z,9.40
2018-11-01T09:17:21.207Z,9.50
2018-11-01T09:19:26.866Z,9.60
2018-11-01T09:21:31.472Z,9.70
2018-11-01T09:23:35.649Z,9.70
2018-11-01T09:25:39.823Z,9.70
2018-11-01T09:27:44.100Z,9.70
2018-11-01T09:29:48.250Z,9.70
2018-11-01T09:31:52.450Z,9.80
2018-11-01T09:33:56.610Z,9.80
2018-11-01T09:36:00.855Z,10.00
2018-11-01T09:38:05.403Z,9.90
2018-11-01T09:40:10.951Z,9.90
2018-11-01T09:42:15.143Z,10.00
2018-11-01T09:44:19.394Z,10.00
2018-11-01T09:46:23.746Z,10.00
2018-11-01T09:48:27.770Z,10.00
2018-11-01T09:50:32.009Z,9.90
2018-11-01T09:52:36.178Z,10.00
2018-11-01T09:54:40.428Z,10.00
2018-11-01T09:56:44.604Z,10.00
2018-11-01T09:58:48.903Z,10.00
2018-11-01T10:00:53.206Z,10.00
2018-11-01T10:02:57.484Z,10.10
2018-11-01T10:05:01.792Z,10.10
2018-11-01T10:07:06.126Z,10.10
2018-11-01T10:09:10.923Z,10.10
2018-11-01T10:11:15.122Z,10.20
2018-11-01T10:13:19.344Z,10.20
2018-11-01T10:15:23.671Z,10.40
2018-11-01T10:17:28.235Z,10.40
2018-11-01T10:19:32.094Z,10.40
2018-11-01T10:21:36.243Z,10.50
2018-11-01T10:23:40.431Z,10.60
2018-11-01T10:25:44.591Z,10.60
2018-11-01T10:27:48.907Z,10.70
2018-11-01T10:29:53.015Z,10.80
2018-11-01T10:31:57.254Z,10.80
2018-11-01T10:34:01.568Z,10.80
2018-11-01T10:36:06.311Z,10.80
2018-11-01T10:38:10.505Z,10.80
2018-11-01T10:40:16.005Z,10.80
2018-11-01T10:42:20.275Z,10.80
2018-11-01T10:44:24.495Z,10.70
2018-11-01T10:46:28.709Z,10.70
2018-11-01T10:48:32.951Z,10.80
2018-11-01T10:50:37.189Z,10.70
2018-11-01T10:52:41.584Z,10.80
2018-11-01T10:54:45.807Z,10.90
2018-11-01T10:56:50.115Z,10.90
2018-11-01T10:58:54.263Z,10.90
2018-11-01T11:01:03.771Z,11.00
2018-11-01T11:03:08.105Z,11.10
2018-11-01T11:05:12.330Z,11.10
2018-11-01T11:07:16.598Z,11.10
2018-11-01T11:09:20.778Z,11.10
2018-11-01T11:11:24.994Z,11.10
2018-11-01T11:13:29.226Z,11.20
2018-11-01T11:15:33.424Z,11.20
2018-11-01T11:17:37.889Z,11.10
2018-11-01T11:19:42.383Z,11.20
2018-11-01T11:21:46.598Z,11.20
2018-11-01T11:23:51.685Z,11.20
2018-11-01T11:25:55.875Z,11.20
2018-11-01T11:28:00.175Z,11.20
2018-11-01T11:30:04.646Z,11.20
2018-11-01T11:32:08.888Z,11.20
2018-11-01T11:34:13.159Z,11.20
2018-11-01T11:36:17.462Z,11.20
2018-11-01T11:38:21.727Z,11.20
2018-11-01T11:40:25.951Z,11.20
2018-11-01T11:42:30.160Z,11.10
2018-11-01T11:44:34.377Z,11.10
2018-11-01T11:46:38.747Z,11.10
2018-11-01T11:48:43.018Z,11.10
2018-11-01T11:50:47.243Z,11.10
2018-11-01T11:52:51.433Z,11.10
2018-11-01T11:54:55.666Z,11.10
2018-11-01T11:56:59.870Z,11.10
2018-11-01T11:59:04.324Z,11.10
2018-11-01T12:01:08.527Z,11.10
2018-11-01T12:03:12.703Z,11.10
2018-11-01T12:05:17.037Z,11.10
2018-11-01T12:07:21.282Z,11.10
2018-11-01T12:09:25.746Z,11.10
2018-11-01T12:11:29.892Z,11.10
2018-11-01T12:13:34.068Z,11.10
2018-11-01T12:15:38.242Z,11.10
2018-11-01T12:17:42.469Z,11.10
2018-11-01T12:19:46.650Z,11.10
2018-11-01T12:21:50.972Z,11.10
2018-11-01T12:23:55.262Z,11.10
2018-11-01T12:25:59.505Z,11.20
2018-11-01T12:28:03.696Z,11.20
2018-11-01T12:30:09.252Z,11.20
2018-11-01T12:32:13.570Z,11.20
2018-11-01T12:34:20.442Z,11.20
2018-11-01T12:36:24.718Z,11.20
2018-11-01T12:38:28.975Z,11.20
2018-11-01T12:40:33.179Z,11.20
2018-11-01T12:42:37.365Z,11.20
2018-11-01T12:44:41.713Z,11.20
2018-11-01T12:46:45.950Z,11.20
2018-11-01T12:48:50.197Z,11.20
2018-11-01T12:50:54.438Z,11.20
2018-11-01T12:52:58.634Z,11.20
2018-11-01T12:55:02.855Z,11.20
2018-11-01T12:57:07.143Z,11.20
2018-11-01T12:59:11.579Z,11.30
2018-11-01T13:01:16.747Z,11.20
2018-11-01T13:03:22.139Z,11.20
2018-11-01T13:05:26.405Z,11.20
2018-11-01T13:07:30.626Z,11.20
2018-11-01T13:09:34.808Z,11.10
2018-11-01T13:11:39.002Z,11.10
2018-11-01T13:13:43.243Z,11.10
2018-11-01T13:15:47.474Z,11.10
2018-11-01T13:17:51.722Z,11.10
2018-11-01T13:19:56.006Z,11.10
2018-11-01T13:22:01.413Z,11.10
2018-11-01T13:24:05.931Z,11.10
2018-11-01T13:26:10.128Z,11.00
2018-11-01T13:28:14.359Z,11.00
2018-11-01T13:30:18.575Z,11.00
2018-11-01T13:32:23.086Z,11.00
2018-11-01T13:34:27.427Z,11.00
2018-11-01T13:36:31.738Z,11.00
2018-11-01T13:38:35.900Z,10.90
2018-11-01T13:40:40.399Z,10.90
2018-11-01T13:42:44.351Z,10.90
2018-11-01T13:44:48.565Z,10.90
2018-11-01T13:46:52.794Z,10.90
2018-11-01T13:48:57.031Z,10.80
2018-11-01T13:51:01.258Z,10.80
2018-11-01T13:53:05.968Z,10.80
2018-11-01T13:55:11.443Z,10.80
2018-11-01T13:57:15.639Z,10.70
2018-11-01T13:59:19.894Z,10.80
2018-11-01T14:01:24.109Z,10.70
2018-11-01T14:03:28.420Z,10.80
2018-11-01T14:05:32.678Z,10.80
2018-11-01T14:07:36.862Z,10.70
2018-11-01T14:09:41.132Z,10.70
2018-11-01T14:11:45.307Z,10.70
2018-11-01T14:13:49.957Z,10.60
2018-11-01T14:15:53.988Z,10.60
2018-11-01T14:17:58.270Z,10.50
2018-11-01T14:20:02.526Z,10.50
2018-11-01T14:22:06.744Z,10.60
2018-11-01T14:24:11.003Z,10.60
2018-11-01T14:26:15.445Z,10.50
2018-11-01T14:28:19.647Z,10.50
2018-11-01T14:30:23.911Z,10.50
2018-11-01T14:32:28.135Z,10.50
2018-11-01T14:34:32.372Z,10.50
2018-11-01T14:36:36.582Z,10.50
2018-11-01T14:38:40.890Z,10.50
2018-11-01T14:40:45.334Z,10.50
2018-11-01T14:42:49.491Z,10.50
2018-11-01T14:44:53.707Z,10.40
2018-11-01T14:46:58.013Z,10.50
2018-11-01T14:49:02.197Z,10.60
2018-11-01T14:51:06.787Z,10.60
2018-11-01T14:53:11.171Z,10.50
2018-11-01T14:55:16.484Z,10.40
2018-11-01T14:57:21.034Z,10.50
2018-11-01T14:59:25.350Z,10.50
2018-11-01T15:01:28.114Z,10.40
2018-11-01T15:03:32.473Z,10.30
2018-11-01T15:05:36.759Z,10.30
2018-11-01T15:07:40.996Z,10.40
2018-11-01T15:09:45.167Z,10.40
2018-11-01T15:11:49.379Z,10.30
2018-11-01T15:13:53.607Z,10.20
2018-11-01T15:15:57.824Z,10.20
2018-11-01T15:18:02.001Z,10.20
2018-11-01T15:20:06.511Z,10.10
2018-11-01T15:22:10.658Z,10.20
2018-11-01T15:24:14.858Z,10.20
2018-11-01T15:26:19.259Z,10.20
2018-11-01T15:28:23.372Z,10.30
2018-11-01T15:30:27.602Z,10.30
2018-11-01T15:32:31.802Z,10.40
2018-11-01T15:34:36.103Z,10.40
2018-11-01T15:36:40.331Z,10.30
2018-11-01T15:38:44.534Z,10.30
2018-11-01T15:40:52.831Z,10.30
2018-11-01T15:42:57.042Z,10.30
2018-11-01T15:45:01.234Z,10.30
2018-11-01T15:47:05.498Z,10.30
2018-11-01T15:49:09.682Z,10.20
2018-11-01T15:51:13.899Z,10.10
2018-11-01T15:53:18.218Z,10.00
2018-11-01T15:55:22.464Z,10.10
2018-11-01T15:57:26.738Z,10.00
2018-11-01T15:59:30.979Z,9.90
2018-11-01T16:01:35.182Z,9.90
2018-11-01T16:03:39.413Z,9.90
2018-11-01T16:05:43.601Z,9.80
2018-11-01T16:07:47.786Z,9.70
2018-11-01T16:09:51.965Z,9.70
2018-11-01T16:11:56.138Z,9.70
2018-11-01T16:14:00.407Z,9.70
2018-11-01T16:16:04.686Z,9.60
2018-11-01T16:18:08.840Z,9.60
2018-11-01T16:20:13.172Z,9.60
2018-11-01T16:22:17.445Z,9.60
2018-11-01T16:24:21.746Z,9.60
2018-11-01T16:26:25.890Z,9.70
2018-11-01T16:28:30.237Z,9.60
2018-11-01T16:30:34.389Z,9.60
2018-11-01T16:32:38.546Z,9.60
2018-11-01T16:34:42.850Z,9.60
2018-11-01T16:36:47.137Z,9.60
2018-11-01T16:38:51.260Z,9.60
2018-11-01T16:40:55.482Z,9.50
2018-11-01T16:42:59.720Z,9.60
2018-11-01T16:45:03.996Z,9.60
2018-11-01T16:47:08.283Z,9.60
2018-11-01T16:49:12.512Z,9.70
2018-11-01T16:51:16.683Z,9.70
2018-11-01T16:53:20.918Z,9.80
2018-11-01T16:55:25.175Z,9.70
2018-11-01T16:57:29.331Z,9.70
2018-11-01T16:59:33.517Z,9.70
2018-11-01T17:01:37.778Z,9.70
2018-11-01T17:03:42.128Z,9.70
2018-11-01T17:05:46.415Z,9.70
2018-11-01T17:07:50.584Z,9.70
2018-11-01T17:09:54.765Z,9.70
2018-11-01T17:11:58.954Z,9.70
2018-11-01T17:14:03.202Z,9.70
2018-11-01T17:16:08.178Z,9.70
2018-11-01T17:18:12.419Z,9.70
2018-11-01T17:20:16.582Z,9.60
2018-11-01T17:22:20.863Z,9.60
2018-11-01T17:24:29.434Z,9.60
2018-11-01T17:26:33.670Z,9.70
2018-11-01T17:28:37.950Z,9.70
2018-11-01T17:33:09.698Z,9.70
2018-11-01T17:35:14.303Z,9.70
2018-11-01T17:37:18.552Z,9.60
2018-11-01T17:39:22.770Z,9.70
2018-11-01T17:41:26.959Z,9.70
2018-11-01T17:43:31.256Z,9.60
2018-11-01T17:45:35.553Z,9.60
2018-11-01T17:47:39.980Z,9.60
2018-11-01T17:49:44.250Z,9.60
2018-11-01T17:51:48.868Z,9.60
2018-11-01T17:53:53.085Z,9.60
2018-11-01T17:55:58.271Z,9.60
2018-11-01T17:58:02.624Z,9.60
2018-11-01T18:00:24.968Z,9.60
2018-11-01T18:02:29.487Z,9.60
2018-11-01T18:04:33.787Z,9.60
2018-11-01T18:06:38.205Z,9.60
2018-11-01T18:08:42.560Z,9.60
2018-11-01T18:10:46.939Z,9.60
2018-11-01T18:12:51.386Z,9.60
2018-11-01T18:14:55.768Z,9.60
2018-11-01T18:17:00.225Z,9.60
2018-11-01T18:19:04.785Z,9.70
2018-11-01T18:21:09.285Z,9.60
2018-11-01T18:23:13.727Z,9.60
2018-11-01T18:25:18.389Z,9.70
2018-11-01T18:27:22.858Z,9.70
2018-11-01T18:29:27.212Z,9.70
2018-11-01T18:33:58.699Z,9.60
2018-11-01T18:36:03.203Z,9.60
2018-11-01T18:38:07.892Z,9.60
2018-11-01T18:40:23.812Z,9.60
2018-11-01T18:42:28.100Z,9.60
2018-11-01T18:44:47.667Z,9.60
2018-11-01T18:46:52.128Z,9.60
2018-11-01T18:48:56.578Z,9.60
2018-11-01T18:51:00.994Z,9.60
2018-11-01T18:53:05.424Z,9.60
2018-11-01T18:55:11.120Z,9.60
2018-11-01T18:57:15.557Z,9.60
2018-11-01T18:59:19.950Z,9.60
2018-11-01T19:01:24.340Z,9.60
2018-11-01T19:03:30.396Z,9.60
2018-11-01T19:05:34.940Z,9.60
2018-11-01T19:07:39.360Z,9.60
2018-11-01T19:09:43.637Z,9.60
2018-11-01T19:11:47.984Z,9.60
2018-11-01T19:13:52.632Z,9.60
2018-11-01T19:15:56.838Z,9.60
2018-11-01T19:18:01.174Z,9.60
2018-11-01T19:20:06.465Z,9.60
2018-11-01T19:22:10.869Z,9.70
2018-11-01T19:24:15.256Z,9.70
2018-11-01T19:26:19.740Z,9.60
2018-11-01T19:28:24.158Z,9.70
2018-11-01T19:30:28.538Z,9.70
2018-11-01T19:32:32.896Z,9.70
2018-11-01T19:34:37.593Z,9.70
2018-11-01T19:36:41.963Z,9.70
2018-11-01T19:38:46.443Z,9.70
2018-11-01T19:40:50.786Z,9.70
2018-11-01T19:42:55.169Z,9.70
2018-11-01T19:44:59.622Z,9.70
2018-11-01T19:47:04.124Z,9.70
2018-11-01T19:49:12.687Z,9.70
2018-11-01T19:51:17.351Z,9.70
2018-11-01T19:53:21.723Z,9.70
2018-11-01T19:55:26.736Z,9.70
2018-11-01T19:57:31.098Z,9.70
2018-11-01T19:59:48.082Z,9.70
2018-11-01T20:01:52.508Z,9.70
2018-11-01T20:03:57.032Z,9.70
2018-11-01T20:06:02.614Z,9.70
2018-11-01T20:08:07.497Z,9.70
2018-11-01T20:10:13.389Z,9.70
2018-11-01T20:12:29.186Z,9.70
2018-11-01T20:14:33.595Z,9.70
2018-11-01T20:16:39.774Z,9.70
2018-11-01T20:18:44.780Z,9.70
2018-11-01T20:20:49.217Z,9.70
2018-11-01T20:22:53.611Z,9.70
2018-11-01T20:24:57.911Z,9.70
2018-11-01T20:27:02.435Z,9.80
2018-11-01T20:29:07.420Z,9.80
2018-11-01T20:31:11.843Z,9.70
2018-11-01T20:33:16.241Z,9.70
2018-11-01T20:35:20.659Z,9.70
2018-11-01T20:37:24.991Z,9.70
2018-11-01T20:39:29.267Z,9.70
2018-11-01T20:41:33.703Z,9.70
2018-11-01T20:43:38.160Z,9.70
2018-11-01T20:45:42.839Z,9.70
2018-11-01T20:47:47.557Z,9.70
2018-11-01T20:50:02.553Z,9.70
2018-11-01T20:52:07.047Z,9.70
2018-11-01T20:54:11.370Z,9.70
2018-11-01T20:56:15.756Z,9.70
2018-11-01T20:58:20.137Z,9.70
2018-11-01T21:00:24.553Z,9.70
2018-11-01T21:02:28.881Z,9.80
2018-11-01T21:04:33.231Z,9.80
2018-11-01T21:06:37.621Z,9.80
2018-11-01T21:08:41.924Z,9.80
2018-11-01T21:10:46.460Z,9.80
2018-11-01T21:12:50.858Z,9.80
2018-11-01T21:14:58.407Z,9.80
2018-11-01T21:17:05.680Z,9.80
2018-11-01T21:19:10.050Z,9.80
2018-11-01T21:21:14.435Z,9.80
2018-11-01T21:23:18.819Z,9.80
2018-11-01T21:25:23.364Z,9.80
2018-11-01T21:27:27.713Z,9.80
2018-11-01T21:29:32.255Z,9.80
2018-11-01T21:31:36.551Z,9.90
2018-11-01T21:33:40.932Z,10.00
2018-11-01T21:35:45.393Z,9.90
2018-11-01T21:37:49.696Z,10.00
2018-11-01T21:39:54.112Z,10.00
2018-11-01T21:41:58.650Z,10.00
2018-11-01T21:44:03.023Z,10.00
2018-11-01T21:46:07.411Z,10.00
2018-11-01T21:48:11.819Z,10.00
2018-11-01T21:50:16.204Z,10.00
2018-11-01T21:52:20.594Z,9.90
2018-11-01T21:54:24.976Z,10.00
2018-11-01T21:56:29.414Z,10.00
2018-11-01T22:01:23.020Z,10.10
2018-11-01T22:03:34.549Z,10.00
2018-11-01T22:05:40.979Z,10.00
2018-11-01T22:07:47.847Z,9.90
2018-11-01T22:09:54.168Z,10.00
2018-11-01T22:12:00.166Z,10.00
2018-11-01T22:14:05.501Z,9.90
2018-11-01T22:16:12.322Z,9.90
2018-11-01T22:18:18.743Z,9.90
2018-11-01T22:20:23.029Z,9.90
2018-11-01T22:22:47.355Z,9.90
2018-11-01T22:24:53.441Z,9.90
2018-11-01T22:27:00.414Z,9.90
2018-11-01T22:29:06.506Z,10.00
2018-11-01T22:31:16.338Z,9.90
2018-11-01T22:33:24.080Z,10.00
2018-11-01T22:35:30.589Z,10.00
2018-11-01T22:37:36.526Z,9.90
2018-11-01T22:39:41.603Z,9.80
2018-11-01T22:41:48.802Z,9.80
2018-11-01T22:43:53.572Z,9.90
2018-11-01T22:46:00.419Z,9.90
2018-11-01T22:48:06.643Z,9.90
2018-11-01T22:50:19.556Z,9.90
2018-11-01T22:52:24.922Z,9.90
2018-11-01T22:54:33.640Z,9.90
2018-11-01T22:56:40.044Z,10.00
2018-11-01T22:58:46.983Z,10.00
2018-11-01T23:00:52.164Z,9.90
2018-11-01T23:02:56.418Z,9.80
2018-11-01T23:05:26.595Z,10.00
2018-11-01T23:07:58.336Z,9.90
2018-11-01T23:10:08.020Z,9.80
2018-11-01T23:12:14.045Z,9.80
2018-11-01T23:14:22.250Z,9.80
2018-11-01T23:16:29.833Z,9.80
2018-11-01T23:18:53.375Z,9.60
2018-11-01T23:21:01.929Z,9.70
2018-11-01T23:25:51.345Z,9.70
2018-11-01T23:27:59.285Z,9.70
2018-11-01T23:30:07.214Z,9.70
2018-11-01T23:32:13.250Z,9.80
2018-11-01T23:34:20.815Z,9.70
2018-11-01T23:36:26.093Z,9.80
2018-11-01T23:38:37.062Z,9.70
2018-11-01T23:40:46.655Z,9.80
2018-11-01T23:42:56.030Z,9.70
2018-11-01T23:45:05.309Z,9.70
2018-11-01T23:47:14.803Z,9.70
2018-11-01T23:49:23.447Z,9.70
2018-11-01T23:51:27.731Z,9.70
2018-11-01T23:53:34.116Z,9.70
2018-11-01T23:56:01.143Z,9.70
2018-11-01T23:58:11.026Z,9.70
